SANE/SDE METAR and TAF weather

Enter ICAO airport designator
Station Type Date Time Source
SANE METAR 2021/09/14 02:20 UTC NOAA

SANE 140220Z 16012G35KT 4000 DU NSC 25/10 Q1012


Station Type Date Time Source
SANE Decoded METAR 2021/09/14 02:20 UTC NOAA

Santiago Del Estero Aero., Argentina (SANE) 27-46S 064-18W 199M
Sep 13, 2021 - 10:20 PM EDT / 2021.09.14 0220 UTC
Wind: from the SSE (160 degrees) at 14 MPH (12 KT) gusting to 40 MPH (35 KT):0
Visibility: 2 mile(s):0
Weather: widespread dust
Temperature: 77 F (25 C)
Dew Point: 50 F (10 C)
Relative Humidity: 38%
Pressure (altimeter): 29.88 in. Hg (1012 hPa)
ob: SANE 140220Z 16012G35KT 4000 DU NSC 25/10 Q1012
cycle: 2

Station Type Date Time Source
SANE TAF 2021/09/10 12:51 UTC NOAA

TAF TAF SANE 101100Z 1012/1112 02015KT CAVOK TX26/1018Z TN06/1110Z
BECMG 1109/1112 02015KT

Example: see airport list